createdAt,value
2017-04-20T00:00:20.315Z,13.24
2017-04-20T00:01:20.267Z,13.34
2017-04-20T00:02:19.955Z,13.14
2017-04-20T00:03:20.274Z,13.62
2017-04-20T00:04:20.275Z,13.43
2017-04-20T00:05:20.277Z,13.33
2017-04-20T00:06:20.280Z,12.94
2017-04-20T00:07:20.337Z,12.18
2017-04-20T00:08:20.289Z,12.38
2017-04-20T00:09:20.341Z,12.76
2017-04-20T00:10:20.342Z,13.33
2017-04-20T00:11:20.295Z,13.04
2017-04-20T00:12:20.299Z,13.33
2017-04-20T00:13:20.301Z,13.23
2017-04-20T00:14:20.305Z,13.14
2017-04-20T00:15:20.305Z,13.23
2017-04-20T00:16:20.305Z,13.23
2017-04-20T00:17:19.997Z,13.23
2017-04-20T00:18:20.052Z,13.33
2017-04-20T00:19:20.313Z,13.71
2017-04-20T00:20:19.999Z,13.13
2017-04-20T00:21:20.440Z,13.43
2017-04-20T00:22:20.320Z,13.13
2017-04-20T00:23:20.375Z,13.13
2017-04-20T00:24:20.328Z,13.23
2017-04-20T00:25:20.376Z,13.43
2017-04-20T00:26:20.332Z,13.14
2017-04-20T00:27:20.332Z,13.04
2017-04-20T00:28:20.023Z,12.76
2017-04-20T00:29:20.360Z,12.47
2017-04-20T00:30:20.635Z,12.86
2017-04-20T00:31:20.390Z,12.76
2017-04-20T00:32:20.344Z,12.76
2017-04-20T00:33:20.396Z,13.05
2017-04-20T00:34:20.040Z,13.14
2017-04-20T00:35:20.357Z,13.24
2017-04-20T00:36:20.408Z,13.24
2017-04-20T00:37:20.359Z,13.82
2017-04-20T00:38:20.410Z,14.1
2017-04-20T00:39:20.419Z,13.61
2017-04-20T00:40:20.565Z,13.33
2017-04-20T00:41:20.366Z,13.62
2017-04-20T00:42:20.419Z,13.9
2017-04-20T00:43:20.375Z,13.9
2017-04-20T00:44:20.379Z,14.28
2017-04-20T00:45:20.428Z,13.71
2017-04-20T00:46:20.426Z,14.48
2017-04-20T00:47:20.427Z,14.57
2017-04-20T00:48:20.379Z,14.86
2017-04-20T00:49:20.382Z,14.28
2017-04-20T00:50:20.387Z,14.38
2017-04-20T00:51:20.386Z,14.09
2017-04-20T00:52:20.586Z,14
2017-04-20T00:53:20.388Z,14.86
2017-04-20T00:54:20.079Z,14.66
2017-04-20T00:55:20.392Z,14.28
2017-04-20T00:56:20.393Z,14.39
2017-04-20T00:57:20.395Z,13.91
2017-04-20T00:58:20.398Z,14.01
2017-04-20T00:59:20.403Z,14.1
2017-04-20T01:00:20.400Z,13.9
2017-04-20T01:01:20.090Z,13.51
2017-04-20T01:02:20.404Z,13.62
2017-04-20T01:03:20.459Z,13.14
2017-04-20T01:04:20.408Z,13.04
2017-04-20T01:05:20.410Z,14.3
2017-04-20T01:06:20.310Z,14.47
2017-04-20T01:07:20.467Z,13.81
2017-04-20T01:08:20.414Z,14
2017-04-20T01:09:20.416Z,13.9
2017-04-20T01:10:20.421Z,13.81
2017-04-20T01:11:20.419Z,14.09
2017-04-20T01:12:20.159Z,14.29
2017-04-20T01:13:20.112Z,14.19
2017-04-20T01:14:20.427Z,14
2017-04-20T01:15:20.477Z,14.87
2017-04-20T01:16:20.429Z,14.47
2017-04-20T01:17:20.432Z,14.38
2017-04-20T01:18:20.432Z,14.67
2017-04-20T01:19:20.431Z,14.48
2017-04-20T01:20:20.433Z,14.29
2017-04-20T01:21:20.484Z,14.48
2017-04-20T01:22:20.485Z,14.29
2017-04-20T01:23:20.494Z,14
2017-04-20T01:24:20.439Z,14.67
2017-04-20T01:25:20.443Z,14.56
2017-04-20T01:26:20.445Z,14.76
2017-04-20T01:27:20.445Z,14.47
2017-04-20T01:28:20.183Z,14.39
2017-04-20T01:29:20.502Z,13.61
2017-04-20T01:30:20.499Z,13.24
2017-04-20T01:31:20.502Z,13.15
2017-04-20T01:32:20.453Z,13.43
2017-04-20T01:33:20.507Z,13.33
2017-04-20T01:34:20.463Z,13.14
2017-04-20T01:35:20.511Z,13.14
2017-04-20T01:36:20.153Z,12.76
2017-04-20T01:37:20.154Z,13.05
2017-04-20T01:38:20.157Z,13.15
2017-04-20T01:39:20.484Z,13.14
2017-04-20T01:40:20.530Z,12.86
2017-04-20T01:41:20.531Z,12.77
2017-04-20T01:42:20.483Z,13.15
2017-04-20T01:43:20.484Z,13.72
2017-04-20T01:44:20.489Z,13.34
2017-04-20T01:45:20.228Z,14.01
2017-04-20T01:46:20.180Z,13.61
2017-04-20T01:47:20.496Z,13.23
2017-04-20T01:48:20.235Z,13.92
2017-04-20T01:49:20.502Z,13.72
2017-04-20T01:50:20.504Z,13.71
2017-04-20T01:51:20.250Z,13.72
2017-04-20T01:52:20.511Z,13.72
2017-04-20T01:53:20.518Z,14.01
2017-04-20T01:54:20.568Z,14.09
2017-04-20T01:55:20.515Z,13.71
2017-04-20T01:56:20.518Z,13.71
2017-04-20T01:57:20.532Z,13.43
2017-04-20T01:58:20.217Z,14.2
2017-04-20T01:59:20.527Z,14.48
2017-04-20T02:00:20.527Z,14.38
2017-04-20T02:01:20.578Z,14.87
2017-04-20T02:02:20.528Z,15.43
2017-04-20T02:03:20.528Z,15.81
2017-04-20T02:04:20.533Z,15.33
2017-04-20T02:05:20.532Z,15.33
2017-04-20T02:06:20.534Z,14.76
2017-04-20T02:07:20.534Z,14.29
2017-04-20T02:08:20.538Z,14.2
2017-04-20T02:09:20.589Z,14.1
2017-04-20T02:10:20.589Z,14.09
2017-04-20T02:11:20.542Z,14.49
2017-04-20T02:12:20.545Z,14.38
2017-04-20T02:13:20.286Z,14.67
2017-04-20T02:14:20.576Z,14.86
2017-04-20T02:15:20.546Z,15.34
2017-04-20T02:16:20.599Z,14.67
2017-04-20T02:17:20.553Z,14.67
2017-04-20T02:18:20.506Z,14.38
2017-04-20T02:19:20.553Z,14.87
2017-04-20T02:20:20.553Z,14.38
2017-04-20T02:21:20.554Z,13.91
2017-04-20T02:22:20.556Z,14.29
2017-04-20T02:23:20.562Z,14.76
2017-04-20T02:24:20.561Z,14.47
2017-04-20T02:25:20.298Z,14
2017-04-20T02:26:20.730Z,14
2017-04-20T02:27:20.255Z,13.62
2017-04-20T02:28:20.625Z,13.34
2017-04-20T02:29:20.570Z,13.24
2017-04-20T02:30:20.259Z,13.24
2017-04-20T02:31:20.574Z,13.24
2017-04-20T02:32:20.267Z,13.63
2017-04-20T02:33:20.631Z,13.92
2017-04-20T02:34:20.587Z,13.71
2017-04-20T02:35:20.633Z,13.14
2017-04-20T02:36:20.588Z,13.53
2017-04-20T02:37:20.691Z,13.34
2017-04-20T02:38:20.283Z,13.53
2017-04-20T02:39:20.594Z,13.62
2017-04-20T02:40:20.599Z,13.92
2017-04-20T02:41:20.600Z,14.2
2017-04-20T02:42:20.600Z,14.01
2017-04-20T02:43:20.392Z,13.91
2017-04-20T02:44:20.771Z,14.39
2017-04-20T02:45:20.608Z,14.49
2017-04-20T02:46:20.610Z,13.71
2017-04-20T02:47:20.614Z,13.23
2017-04-20T02:48:20.616Z,13.62
2017-04-20T02:49:20.621Z,14.11
2017-04-20T02:50:20.670Z,13.62
2017-04-20T02:51:20.637Z,13.34
2017-04-20T02:52:20.627Z,13.73
2017-04-20T02:53:20.681Z,13.15
2017-04-20T02:54:20.682Z,13.15
2017-04-20T02:55:20.321Z,13.64
2017-04-20T02:56:20.634Z,14.01
2017-04-20T02:57:20.692Z,14.1
2017-04-20T02:58:21.943Z,13.71
2017-04-20T02:59:20.333Z,14.01
2017-04-20T03:00:20.692Z,14.29
2017-04-20T03:01:20.645Z,13.71
2017-04-20T03:02:20.338Z,14.3
2017-04-20T03:03:20.338Z,14.1
2017-04-20T03:04:20.652Z,14.29
2017-04-20T03:05:20.705Z,14.59
2017-04-20T03:06:20.659Z,14.47
2017-04-20T03:07:20.658Z,14.29
2017-04-20T03:08:20.661Z,14.29
2017-04-20T03:09:20.658Z,14.39
2017-04-20T03:10:20.354Z,14.67
2017-04-20T03:11:20.363Z,14.57
2017-04-20T03:12:20.667Z,14.48
2017-04-20T03:13:20.665Z,14.39
2017-04-20T03:14:20.670Z,14.11
2017-04-20T03:15:20.673Z,14.09
2017-04-20T03:16:20.359Z,14.29
2017-04-20T03:17:20.723Z,14.39
2017-04-20T03:18:20.676Z,14.58
2017-04-20T03:19:20.727Z,14.86
2017-04-20T03:20:20.724Z,14.19
2017-04-20T03:21:20.678Z,14.01
2017-04-20T03:22:20.730Z,14.19
2017-04-20T03:23:21.031Z,13.71
2017-04-20T03:24:20.684Z,14.1
2017-04-20T03:25:20.736Z,13.91
2017-04-20T03:26:20.685Z,13.62
2017-04-20T03:27:20.797Z,13.63
2017-04-20T03:28:20.692Z,13.14
2017-04-20T03:29:20.705Z,13.34
2017-04-20T03:30:20.699Z,13.34
2017-04-20T03:31:20.700Z,13.05
2017-04-20T03:32:20.438Z,13.15
2017-04-20T03:33:20.711Z,13.34
2017-04-20T03:34:20.708Z,13.05
2017-04-20T03:35:20.713Z,13.34
2017-04-20T03:36:20.717Z,13.34
2017-04-20T03:37:20.457Z,13.05
2017-04-20T03:38:20.410Z,13.63
2017-04-20T03:39:20.776Z,13.15
2017-04-20T03:40:20.466Z,13.34
2017-04-20T03:41:20.731Z,13.45
2017-04-20T03:42:20.735Z,13.24
2017-04-20T03:43:20.848Z,13.54
2017-04-20T03:44:20.744Z,13.15
2017-04-20T03:45:20.794Z,13.44
2017-04-20T03:46:20.750Z,13.62
2017-04-20T03:47:20.751Z,14.29
2017-04-20T03:48:20.759Z,13.71
2017-04-20T03:49:20.807Z,13.23
2017-04-20T03:50:20.758Z,13.04
2017-04-20T03:51:20.765Z,13.24
2017-04-20T03:52:20.877Z,13.34
2017-04-20T03:53:20.768Z,13.05
2017-04-20T03:54:20.771Z,13.05
2017-04-20T03:55:20.469Z,13.62
2017-04-20T03:56:20.774Z,13.24
2017-04-20T03:57:20.778Z,13.53
2017-04-20T03:58:20.782Z,13.04
2017-04-20T03:59:20.783Z,13.62
2017-04-20T04:00:20.834Z,12.96
2017-04-20T04:01:20.787Z,13.25
2017-04-20T04:02:20.792Z,12.86
2017-04-20T04:03:20.794Z,13.15
2017-04-20T04:04:20.800Z,13.15
2017-04-20T04:05:20.488Z,13.15
2017-04-20T04:06:20.802Z,13.73
2017-04-20T04:07:20.807Z,13.24
2017-04-20T04:08:20.859Z,12.67
2017-04-20T04:09:20.810Z,12.57
2017-04-20T04:10:21.017Z,13.05
2017-04-20T04:11:20.868Z,13.05
2017-04-20T04:12:20.823Z,13.05
2017-04-20T04:13:20.508Z,13.92
2017-04-20T04:14:20.826Z,13.43
2017-04-20T04:15:20.886Z,13.72
2017-04-20T04:16:20.831Z,14.39
2017-04-20T04:17:20.833Z,14.39
2017-04-20T04:18:20.832Z,13.53
2017-04-20T04:19:20.854Z,13.43
2017-04-20T04:20:20.837Z,13.44
2017-04-20T04:21:20.886Z,14.01
2017-04-20T04:22:20.846Z,14.1
2017-04-20T04:23:20.841Z,14.29
2017-04-20T04:24:20.538Z,13.91
2017-04-20T04:25:20.896Z,13.72
2017-04-20T04:26:20.846Z,13.43
2017-04-20T04:27:20.850Z,14.11
2017-04-20T04:28:20.851Z,13.62
2017-04-20T04:29:20.850Z,13.44
2017-04-20T04:30:20.542Z,13.06
2017-04-20T04:31:20.855Z,13.25
2017-04-20T04:32:20.905Z,13.15
2017-04-20T04:33:20.866Z,13.24
2017-04-20T04:34:20.863Z,13.24
2017-04-20T04:35:20.918Z,13.05
2017-04-20T04:36:20.920Z,13.25
2017-04-20T04:37:20.872Z,13.24
2017-04-20T04:38:20.564Z,12.48
2017-04-20T04:39:20.927Z,12.87
2017-04-20T04:40:20.574Z,13.06
2017-04-20T04:41:20.883Z,13.05
2017-04-20T04:42:20.888Z,13.15
2017-04-20T04:43:20.949Z,12.86
2017-04-20T04:44:20.922Z,12.57
2017-04-20T04:45:20.897Z,12.77
2017-04-20T04:46:20.900Z,12.77
2017-04-20T04:47:20.902Z,13.15
2017-04-20T04:48:20.645Z,13.05
2017-04-20T04:49:20.913Z,12.76
2017-04-20T04:50:20.966Z,13.05
2017-04-20T04:51:20.968Z,12.76
2017-04-20T04:52:20.988Z,12.76
2017-04-20T04:53:20.612Z,12.86
2017-04-20T04:54:20.924Z,12.48
2017-04-20T04:55:20.931Z,12.57
2017-04-20T04:56:20.985Z,12.57
2017-04-20T04:57:20.937Z,12.66
2017-04-20T04:58:20.942Z,12.48
2017-04-20T04:59:20.944Z,12.86
2017-04-20T05:00:20.948Z,12.77
2017-04-20T05:01:20.646Z,12.19
2017-04-20T05:02:20.954Z,13.34
2017-04-20T05:03:20.960Z,13.15
2017-04-20T05:04:20.700Z,13.24
2017-04-20T05:05:20.962Z,13.34
2017-04-20T05:06:20.967Z,13.05
2017-04-20T05:07:20.713Z,13.05
2017-04-20T05:08:20.973Z,13.05
2017-04-20T05:09:21.025Z,12.66
2017-04-20T05:10:20.666Z,13.05
2017-04-20T05:11:20.982Z,12.76
2017-04-20T05:12:20.987Z,12.76
2017-04-20T05:13:20.989Z,12.96
2017-04-20T05:14:21.094Z,12.87
2017-04-20T05:15:21.046Z,12.96
2017-04-20T05:16:20.998Z,13.05
2017-04-20T05:17:21.003Z,13.34
2017-04-20T05:18:21.091Z,12.95
2017-04-20T05:19:21.059Z,13.24
2017-04-20T05:20:21.016Z,12.66
2017-04-20T05:21:21.017Z,13.24
2017-04-20T05:22:21.026Z,13.72
2017-04-20T05:23:20.710Z,13.24
2017-04-20T05:24:21.077Z,13.05
2017-04-20T05:25:21.032Z,13.15
2017-04-20T05:26:21.175Z,13.34
2017-04-20T05:27:21.040Z,12.47
2017-04-20T05:28:21.040Z,12.87
2017-04-20T05:29:21.047Z,13.25
2017-04-20T05:30:20.738Z,13.25
2017-04-20T05:31:21.053Z,13.54
2017-04-20T05:32:21.059Z,13.72
2017-04-20T05:33:21.110Z,14.1
2017-04-20T05:34:21.066Z,14.29
2017-04-20T05:35:20.863Z,14.1
2017-04-20T05:36:21.121Z,14.01
2017-04-20T05:37:21.077Z,14.29
2017-04-20T05:38:21.125Z,14.48
2017-04-20T05:39:20.765Z,14.39
2017-04-20T05:40:21.135Z,14.39
2017-04-20T05:41:20.769Z,14.59
2017-04-20T05:42:21.086Z,14.77
2017-04-20T05:43:21.138Z,14.77
2017-04-20T05:44:20.774Z,14.77
2017-04-20T05:45:21.087Z,14.48
2017-04-20T05:46:20.827Z,14.48
2017-04-20T05:47:20.780Z,14.39
2017-04-20T05:48:21.144Z,14.58
2017-04-20T05:49:21.098Z,14.77
2017-04-20T05:50:21.096Z,14.58
2017-04-20T05:51:21.098Z,14.57
2017-04-20T05:52:21.153Z,14.76
2017-04-20T05:53:21.103Z,14.19
2017-04-20T05:54:21.109Z,14.2
2017-04-20T05:55:21.158Z,14.29
2017-04-20T05:56:20.844Z,14.29
2017-04-20T05:57:21.110Z,13.72
2017-04-20T05:58:20.816Z,14.29
2017-04-20T05:59:21.113Z,13.81
2017-04-20T06:00:21.115Z,14.78
2017-04-20T06:01:21.116Z,14.47
2017-04-20T06:03:21.221Z,14.1
2017-04-20T06:04:21.123Z,14.01
2017-04-20T06:05:21.175Z,14.29
2017-04-20T06:06:21.130Z,13.91
2017-04-20T06:07:21.183Z,14.1
2017-04-20T06:08:21.131Z,14.01
2017-04-20T06:09:20.823Z,14.49
2017-04-20T06:10:20.874Z,13.52
2017-04-20T06:11:21.188Z,13.62
2017-04-20T06:12:21.141Z,14.12
2017-04-20T06:13:21.143Z,13.71
2017-04-20T06:14:21.147Z,13.81
2017-04-20T06:15:20.834Z,13.24
2017-04-20T06:16:21.149Z,13.24
2017-04-20T06:17:20.892Z,13.34
2017-04-20T06:18:21.157Z,12.47
2017-04-20T06:19:21.158Z,12.87
2017-04-20T06:20:21.163Z,12.09
2017-04-20T06:21:21.164Z,11.8
2017-04-20T06:22:21.169Z,11.04
2017-04-20T06:23:21.170Z,10.47
2017-04-20T06:24:20.862Z,10.48
2017-04-20T06:25:21.383Z,10.57
2017-04-20T06:26:21.182Z,10.57
2017-04-20T06:27:21.189Z,10.28
2017-04-20T06:28:21.199Z,10.19
2017-04-20T06:29:20.883Z,10.19
2017-04-20T06:30:20.887Z,10.28
2017-04-20T06:31:20.893Z,9.8
2017-04-20T06:32:21.260Z,9.61
2017-04-20T06:33:21.261Z,8.74
2017-04-20T06:34:21.267Z,8.17
2017-04-20T06:35:21.222Z,8.36
2017-04-20T06:36:21.225Z,8.65
2017-04-20T06:37:21.380Z,8.84
2017-04-20T06:38:20.970Z,8.94
2017-04-20T06:39:20.927Z,8.65
2017-04-20T06:40:21.242Z,8.36
2017-04-20T06:41:21.248Z,8.56
2017-04-20T06:42:20.938Z,7.98
2017-04-20T06:43:21.305Z,8.17
2017-04-20T06:44:21.261Z,8.95
2017-04-20T06:45:21.316Z,8.65
2017-04-20T06:46:21.272Z,8.36
2017-04-20T06:47:21.276Z,8.46
2017-04-20T06:48:21.282Z,7.78
2017-04-20T06:49:21.337Z,7.4
2017-04-20T06:50:21.393Z,7.21
2017-04-20T06:51:21.298Z,7.31
2017-04-20T06:52:21.355Z,7.01
2017-04-20T06:53:21.013Z,7.31
2017-04-20T06:54:21.004Z,6.92
2017-04-20T06:55:21.772Z,7.79
2017-04-20T06:56:21.381Z,7.98
2017-04-20T06:57:21.346Z,7.98
2017-04-20T06:58:21.503Z,7.79
2017-04-20T06:59:21.397Z,7.69
2017-04-20T07:00:21.400Z,6.82
2017-04-20T07:01:21.408Z,6.43
2017-04-20T07:02:21.365Z,6.15
2017-04-20T07:03:21.371Z,6.05
2017-04-20T07:04:21.433Z,6.54
2017-04-20T07:05:21.439Z,6.25
2017-04-20T07:06:21.396Z,7.22
2017-04-20T07:07:21.401Z,8.95
2017-04-20T07:08:21.412Z,10.29
2017-04-20T07:09:21.421Z,10.76
2017-04-20T07:10:21.426Z,10.47
2017-04-20T07:11:21.483Z,10.75
2017-04-20T07:12:22.043Z,10.57
2017-04-20T07:13:21.445Z,10.75
2017-04-20T07:14:21.460Z,10.36
2017-04-20T07:15:21.763Z,10.85
2017-04-20T07:16:21.468Z,10.85
2017-04-20T07:17:21.524Z,11.24
2017-04-20T07:18:21.481Z,11.24
2017-04-20T07:19:21.490Z,10.94
2017-04-20T07:20:21.556Z,11.14
2017-04-20T07:21:21.553Z,10.94
2017-04-20T07:22:21.512Z,11.13
2017-04-20T07:23:21.376Z,10.74
2017-04-20T07:24:22.373Z,11.71
2017-04-20T07:25:21.528Z,11.9
2017-04-20T07:26:21.634Z,11.99
2017-04-20T07:27:21.541Z,12.18
2017-04-20T07:28:21.546Z,12.47
2017-04-20T07:29:21.602Z,12.28
2017-04-20T07:30:21.250Z,11.61
2017-04-20T07:31:21.294Z,11.71
2017-04-20T07:32:21.568Z,11.32
2017-04-20T07:33:21.623Z,11.32
2017-04-20T07:34:21.684Z,11.03
2017-04-20T07:35:21.587Z,11.23
2017-04-20T07:36:21.644Z,11.04
2017-04-20T07:37:21.600Z,10.36
2017-04-20T07:38:21.606Z,10.46
2017-04-20T07:39:21.610Z,10.65
2017-04-20T07:40:21.617Z,10.66
2017-04-20T07:41:21.670Z,10.17
2017-04-20T07:42:21.310Z,9.89
2017-04-20T07:43:21.632Z,9.79
2017-04-20T07:44:21.634Z,9.89
2017-04-20T07:45:21.642Z,10.37
2017-04-20T07:46:21.694Z,9.39
2017-04-20T07:47:21.648Z,9.11
2017-04-20T07:48:21.652Z,9.12
2017-04-20T07:49:21.347Z,9.21
2017-04-20T07:50:22.398Z,8.92
2017-04-20T07:51:21.964Z,8.83
2017-04-20T07:52:21.664Z,8.92
2017-04-20T07:53:21.409Z,9.11
2017-04-20T07:54:21.360Z,8.83
2017-04-20T07:55:21.367Z,8.92
2017-04-20T07:56:21.683Z,8.54
2017-04-20T07:57:22.188Z,8.83
2017-04-20T07:58:21.689Z,8.93
2017-04-20T07:59:21.697Z,8.83
2017-04-20T08:00:21.700Z,8.25
2017-04-20T08:01:21.442Z,8.34
2017-04-20T08:02:21.450Z,8.73
2017-04-20T08:03:21.714Z,8.44
2017-04-20T08:04:21.720Z,8.35
2017-04-20T08:05:21.727Z,8.74
2017-04-20T08:06:21.471Z,8.74
2017-04-20T08:07:21.736Z,8.15
2017-04-20T08:08:21.743Z,7.96
2017-04-20T08:09:21.749Z,8.35
2017-04-20T08:10:21.754Z,8.54
2017-04-20T08:11:21.761Z,8.15
2017-04-20T08:12:21.769Z,8.64
2017-04-20T08:13:21.772Z,7.87
2017-04-20T08:14:21.776Z,7.38
2017-04-20T08:15:21.780Z,7.39
2017-04-20T08:16:21.478Z,8.06
2017-04-20T08:17:21.795Z,8.55
2017-04-20T08:18:21.853Z,8.16
2017-04-20T08:19:21.805Z,7.97
2017-04-20T08:20:21.810Z,7.78
2017-04-20T08:21:21.817Z,8.26
2017-04-20T08:22:21.822Z,7.97
2017-04-20T08:23:21.881Z,7.39
2017-04-20T08:24:21.523Z,6.99
2017-04-20T08:25:21.890Z,7.97
2017-04-20T08:26:21.843Z,7.67
2017-04-20T08:27:21.850Z,6.9
2017-04-20T08:28:21.856Z,7.57
2017-04-20T08:29:21.549Z,6.9
2017-04-20T08:30:21.865Z,6.9
2017-04-20T08:31:21.870Z,7.95
2017-04-20T08:32:21.872Z,7.95
2017-04-20T08:33:21.878Z,7.57
2017-04-20T08:34:21.889Z,7.67
2017-04-20T08:35:21.889Z,7.48
2017-04-20T08:36:21.889Z,6.99
2017-04-20T08:37:21.950Z,6.89
2017-04-20T08:38:21.897Z,7.38
2017-04-20T08:39:22.154Z,6.99
2017-04-20T08:40:21.909Z,7.87
2017-04-20T08:41:21.911Z,7.96
2017-04-20T08:42:21.918Z,7.38
2017-04-20T08:43:21.658Z,6.9
2017-04-20T08:44:21.935Z,7.29
2017-04-20T08:45:21.935Z,7.28
2017-04-20T08:46:21.993Z,6.99
2017-04-20T08:47:21.941Z,7.57
2017-04-20T08:48:21.944Z,7.38
2017-04-20T08:49:21.953Z,7.77
2017-04-20T08:50:21.957Z,8.36
2017-04-20T08:51:22.012Z,7.97
2017-04-20T08:52:21.704Z,7.97
2017-04-20T08:53:21.974Z,7.09
2017-04-20T08:54:22.027Z,7.96
2017-04-20T08:55:22.031Z,7.97
2017-04-20T08:56:21.676Z,7.87
2017-04-20T08:57:21.998Z,7.48
2017-04-20T08:58:21.998Z,7.38
2017-04-20T08:59:22.005Z,7.77
2017-04-20T09:00:22.012Z,8.45
2017-04-20T09:01:21.701Z,8.55
2017-04-20T09:02:22.018Z,7.87
2017-04-20T09:03:22.038Z,7.09
2017-04-20T09:04:22.032Z,7.39
2017-04-20T09:05:22.038Z,7.77
2017-04-20T09:06:21.729Z,7.57
2017-04-20T09:07:22.097Z,8.74
2017-04-20T09:08:22.052Z,8.26
2017-04-20T09:09:22.059Z,8.36
2017-04-20T09:10:21.797Z,7.68
2017-04-20T09:11:22.119Z,7.67
2017-04-20T09:12:21.868Z,7.68
2017-04-20T09:13:22.078Z,7.58
2017-04-20T09:14:22.083Z,7.77
2017-04-20T09:15:22.109Z,7.86
2017-04-20T09:16:21.777Z,8.34
2017-04-20T09:17:22.098Z,7.87
2017-04-20T09:18:22.101Z,8.45
2017-04-20T09:19:22.158Z,8.35
2017-04-20T09:20:22.114Z,7.97
2017-04-20T09:21:22.381Z,7.77
2017-04-20T09:22:22.124Z,7.38
2017-04-20T09:23:22.127Z,7.97
2017-04-20T09:24:22.133Z,7.67
2017-04-20T09:25:22.188Z,6.99
2017-04-20T09:26:22.142Z,7.19
2017-04-20T09:27:21.833Z,7.09
2017-04-20T09:28:23.700Z,7.48
2017-04-20T09:29:22.195Z,7.96
2017-04-20T09:30:21.847Z,7.87
2017-04-20T09:31:22.165Z,7.96
2017-04-20T09:32:21.855Z,7.28
2017-04-20T09:33:22.174Z,7.77
2017-04-20T09:34:21.866Z,7.39
2017-04-20T09:35:21.924Z,7.48
2017-04-20T09:36:22.241Z,8.16
2017-04-20T09:37:22.200Z,7.97
2017-04-20T09:38:22.202Z,8.26
2017-04-20T09:39:22.210Z,7.97
2017-04-20T09:40:22.215Z,7.87
2017-04-20T09:41:22.222Z,7.97
2017-04-20T09:42:22.232Z,7.87
2017-04-20T09:43:21.922Z,7.77
2017-04-20T09:44:22.048Z,7.97
2017-04-20T09:45:22.250Z,8.06
2017-04-20T09:46:22.308Z,7.67
2017-04-20T09:47:22.314Z,7.97
2017-04-20T09:48:22.281Z,7.67
2017-04-20T09:49:22.279Z,7.87
2017-04-20T09:50:22.282Z,7.67
2017-04-20T09:51:22.340Z,8.74
2017-04-20T09:52:22.294Z,8.93
2017-04-20T09:53:22.353Z,8.83
2017-04-20T09:54:22.309Z,8.93
2017-04-20T09:55:22.364Z,8.93
2017-04-20T09:56:22.327Z,8.64
2017-04-20T09:57:22.381Z,8.83
2017-04-20T09:58:22.387Z,8.63
2017-04-20T09:59:22.391Z,9.41
2017-04-20T10:00:22.347Z,8.92
2017-04-20T10:01:22.355Z,9.12
2017-04-20T10:02:22.097Z,9.41
2017-04-20T10:03:22.055Z,9.02
2017-04-20T10:04:22.069Z,9.41
2017-04-20T10:05:22.384Z,9.6
2017-04-20T10:06:22.387Z,9.99
2017-04-20T10:07:22.398Z,9.51
2017-04-20T10:08:22.401Z,9.6
2017-04-20T10:09:22.411Z,10.28
2017-04-20T10:10:22.417Z,10.38
2017-04-20T10:11:22.112Z,9.7
2017-04-20T10:12:22.431Z,9.59
2017-04-20T10:13:22.439Z,9.69
2017-04-20T10:14:22.126Z,9.78
2017-04-20T10:15:22.447Z,9.69
2017-04-20T10:16:22.188Z,9.59
2017-04-20T10:17:22.455Z,9.59
2017-04-20T10:18:22.514Z,9.59
2017-04-20T10:19:22.468Z,9.88
2017-04-20T10:20:22.475Z,9.59
2017-04-20T10:21:22.483Z,9.69
2017-04-20T10:22:22.486Z,9.59
2017-04-20T10:23:22.491Z,9.78
2017-04-20T10:24:22.497Z,9.68
2017-04-20T10:25:22.239Z,9.48
2017-04-20T10:26:22.505Z,10.36
2017-04-20T10:27:22.763Z,10.55
2017-04-20T10:28:22.520Z,10.75
2017-04-20T10:29:22.259Z,10.46
2017-04-20T10:30:22.529Z,10.94
2017-04-20T10:31:22.275Z,10.56
2017-04-20T10:32:22.541Z,10.65
2017-04-20T10:33:22.598Z,10.36
2017-04-20T10:34:22.557Z,10.17
2017-04-20T10:35:22.245Z,10.55
2017-04-20T10:36:22.252Z,11.13
2017-04-20T10:37:22.571Z,11.8
2017-04-20T10:38:22.258Z,11.31
2017-04-20T10:39:22.264Z,11.8
2017-04-20T10:40:22.268Z,11.69
2017-04-20T10:41:22.277Z,11.79
2017-04-20T10:42:22.591Z,11.12
2017-04-20T10:43:22.592Z,11.31
2017-04-20T10:44:22.787Z,11.22
2017-04-20T10:45:22.289Z,10.84
2017-04-20T10:46:22.295Z,11.12
2017-04-20T10:47:22.355Z,11.22
2017-04-20T10:48:22.665Z,12.77
2017-04-20T10:49:22.304Z,12.19
2017-04-20T10:50:22.675Z,11.6
2017-04-20T10:51:22.317Z,11.69
2017-04-20T10:52:22.637Z,12.18
2017-04-20T10:53:22.375Z,12.94
2017-04-20T10:54:22.641Z,12.37
2017-04-20T10:55:22.382Z,13.6
2017-04-20T10:56:22.649Z,13.5
2017-04-20T10:57:22.654Z,13.13
2017-04-20T10:58:22.656Z,12.26
2017-04-20T10:59:22.657Z,11.87
2017-04-20T11:00:22.712Z,13.12
2017-04-20T11:01:22.664Z,13.23
2017-04-20T11:02:22.355Z,13.13
2017-04-20T11:03:22.676Z,12.75
2017-04-20T11:04:22.676Z,12.65
2017-04-20T11:05:22.680Z,12.94
2017-04-20T11:06:22.735Z,12.16
2017-04-20T11:07:22.374Z,12.84
2017-04-20T11:08:22.430Z,13.6
2017-04-20T11:09:22.699Z,13.22
2017-04-20T11:10:22.703Z,12.35
2017-04-20T11:11:22.752Z,13.22
2017-04-20T11:12:22.401Z,13.12
2017-04-20T11:13:22.395Z,12.65
2017-04-20T11:14:22.410Z,13.12
2017-04-20T11:15:22.454Z,12.16
2017-04-20T11:16:22.475Z,12.64
2017-04-20T11:17:22.412Z,12.16
2017-04-20T11:18:22.836Z,12.06
2017-04-20T11:19:22.733Z,12.63
2017-04-20T11:20:22.740Z,12.73
2017-04-20T11:21:22.741Z,12.92
2017-04-20T11:22:22.744Z,12.92
2017-04-20T11:23:22.748Z,13.01
2017-04-20T11:24:22.753Z,13.78
2017-04-20T11:25:24.055Z,13.69
2017-04-20T11:26:22.443Z,13.02
2017-04-20T11:27:22.810Z,12.05
2017-04-20T11:28:22.763Z,12.54
2017-04-20T11:29:22.768Z,12.35
2017-04-20T11:30:22.776Z,12.54
2017-04-20T11:31:22.465Z,12.16
2017-04-20T11:32:22.834Z,12.35
2017-04-20T11:33:22.472Z,13.21
2017-04-20T11:34:22.482Z,12.44
2017-04-20T11:35:22.842Z,12.25
2017-04-20T11:36:22.798Z,13.3
2017-04-20T11:37:22.490Z,13.31
2017-04-20T11:38:22.855Z,13.12
2017-04-20T11:39:22.495Z,12.83
2017-04-20T11:40:22.549Z,12.63
2017-04-20T11:41:22.820Z,12.63
2017-04-20T11:42:22.821Z,13.21
2017-04-20T11:43:22.826Z,13.11
2017-04-20T11:44:22.829Z,13.11
2017-04-20T11:45:22.882Z,13.21
2017-04-20T11:46:22.839Z,13.12
2017-04-20T11:47:22.843Z,13.31
2017-04-20T11:48:22.848Z,13.12
2017-04-20T11:49:22.854Z,13.12
2017-04-20T11:50:22.545Z,13.3
2017-04-20T11:51:22.547Z,14.15
2017-04-20T11:52:22.921Z,13.49
2017-04-20T11:53:22.917Z,13.69
2017-04-20T11:54:22.870Z,13.29
2017-04-20T11:55:22.610Z,13.2
2017-04-20T11:56:22.879Z,13.1
2017-04-20T11:57:22.930Z,13.11
2017-04-20T11:58:22.571Z,13.4
2017-04-20T11:59:22.576Z,13.78
2017-04-20T12:00:22.892Z,13.11
2017-04-20T12:01:22.897Z,13.69
2017-04-20T12:02:22.946Z,14.26
2017-04-20T12:03:22.952Z,13.1
2017-04-20T12:04:22.909Z,12.15
2017-04-20T12:05:22.645Z,13.96
2017-04-20T12:06:22.914Z,14.43
2017-04-20T12:07:22.916Z,13.96
2017-04-20T12:08:22.917Z,13.29
2017-04-20T12:09:22.921Z,13.48
2017-04-20T12:10:22.973Z,13.01
2017-04-20T12:11:22.613Z,13.49
2017-04-20T12:12:22.933Z,13.3
2017-04-20T12:13:22.933Z,13.21
2017-04-20T12:14:22.683Z,13.21
2017-04-20T12:15:22.942Z,13.12
2017-04-20T12:16:22.951Z,12.83
2017-04-20T12:17:22.952Z,13.01
2017-04-20T12:18:23.156Z,13.78
2017-04-20T12:19:22.960Z,13.3
2017-04-20T12:20:22.661Z,13.29
2017-04-20T12:21:22.655Z,13.11
2017-04-20T12:22:22.713Z,13.21
2017-04-20T12:23:22.979Z,13.21
2017-04-20T12:24:22.984Z,13.3
2017-04-20T12:25:23.047Z,13.78
2017-04-20T12:26:23.048Z,13.79
2017-04-20T12:27:23.051Z,13.31
2017-04-20T12:28:23.009Z,13.6
2017-04-20T12:29:22.700Z,13.12
2017-04-20T12:30:22.754Z,13.6
2017-04-20T12:31:22.731Z,13.7
2017-04-20T12:32:22.719Z,13.21
2017-04-20T12:33:22.719Z,13.7
2017-04-20T12:34:22.826Z,13.6
2017-04-20T12:35:22.783Z,13.6
2017-04-20T12:36:22.787Z,13.5
2017-04-20T12:37:24.413Z,13.6
2017-04-20T12:38:23.116Z,13.6
2017-04-20T12:39:23.067Z,14.18
2017-04-20T12:40:23.073Z,13.7
2017-04-20T12:41:22.814Z,13.7
2017-04-20T12:42:23.135Z,13.79
2017-04-20T12:43:23.141Z,14.08
2017-04-20T12:44:22.838Z,13.98
2017-04-20T12:45:22.798Z,13.98
2017-04-20T12:46:23.160Z,13.98
2017-04-20T12:47:23.164Z,14.07
2017-04-20T12:48:23.167Z,14.55
2017-04-20T12:49:23.120Z,14.26
2017-04-20T12:50:23.128Z,14.36
2017-04-20T12:51:23.133Z,14.07
2017-04-20T12:52:23.186Z,13.98
2017-04-20T12:53:23.192Z,14.26
2017-04-20T12:54:23.191Z,14.36
2017-04-20T12:55:23.160Z,14.17
2017-04-20T12:56:22.891Z,14.26
2017-04-20T12:57:23.160Z,13.89
2017-04-20T12:58:23.214Z,13.98
2017-04-20T12:59:23.220Z,13.98
2017-04-20T13:00:22.862Z,14.07
2017-04-20T13:01:22.863Z,13.98
2017-04-20T13:02:23.183Z,14.36